sensor_id;sensor_type;location;lat;lon;timestamp;P1;durP1;ratioP1;P2;durP2;ratioP2
21107;SDS011;10712;52.944;9.098;2023-09-18T00:00:25;7.70;;;6.88;;
21107;SDS011;10712;52.944;9.098;2023-09-18T00:02:51;7.35;;;6.75;;
21107;SDS011;10712;52.944;9.098;2023-09-18T00:05:17;7.80;;;7.20;;
21107;SDS011;10712;52.944;9.098;2023-09-18T00:07:43;6.90;;;6.30;;
21107;SDS011;10712;52.944;9.098;2023-09-18T00:10:09;6.13;;;5.70;;
21107;SDS011;10712;52.944;9.098;2023-09-18T00:12:36;7.03;;;6.43;;
21107;SDS011;10712;52.944;9.098;2023-09-18T00:15:04;7.25;;;6.65;;
21107;SDS011;10712;52.944;9.098;2023-09-18T00:17:30;6.75;;;6.10;;
21107;SDS011;10712;52.944;9.098;2023-09-18T00:19:57;7.07;;;6.43;;
21107;SDS011;10712;52.944;9.098;2023-09-18T00:22:23;7.85;;;6.03;;
21107;SDS011;10712;52.944;9.098;2023-09-18T00:24:49;8.25;;;6.32;;
21107;SDS011;10712;52.944;9.098;2023-09-18T00:27:15;8.02;;;7.22;;
21107;SDS011;10712;52.944;9.098;2023-09-18T00:29:42;7.00;;;6.50;;
21107;SDS011;10712;52.944;9.098;2023-09-18T00:32:08;7.60;;;6.90;;
21107;SDS011;10712;52.944;9.098;2023-09-18T00:34:34;7.03;;;6.32;;
21107;SDS011;10712;52.944;9.098;2023-09-18T00:36:59;7.38;;;6.78;;
21107;SDS011;10712;52.944;9.098;2023-09-18T00:39:26;6.50;;;5.90;;
21107;SDS011;10712;52.944;9.098;2023-09-18T00:41:52;7.25;;;6.65;;
21107;SDS011;10712;52.944;9.098;2023-09-18T00:44:19;6.75;;;6.18;;
21107;SDS011;10712;52.944;9.098;2023-09-18T00:46:46;8.25;;;7.55;;
21107;SDS011;10712;52.944;9.098;2023-09-18T00:49:14;6.93;;;6.22;;
21107;SDS011;10712;52.944;9.098;2023-09-18T00:51:42;8.32;;;7.55;;
21107;SDS011;10712;52.944;9.098;2023-09-18T00:54:09;8.23;;;7.53;;
21107;SDS011;10712;52.944;9.098;2023-09-18T00:56:36;7.30;;;6.60;;
21107;SDS011;10712;52.944;9.098;2023-09-18T00:59:03;7.40;;;6.80;;
21107;SDS011;10712;52.944;9.098;2023-09-18T01:01:30;8.43;;;7.57;;
21107;SDS011;10712;52.944;9.098;2023-09-18T01:03:57;7.80;;;7.10;;
21107;SDS011;10712;52.944;9.098;2023-09-18T01:06:24;8.25;;;7.55;;
21107;SDS011;10712;52.944;9.098;2023-09-18T01:08:53;6.97;;;6.38;;
21107;SDS011;10712;52.944;9.098;2023-09-18T01:11:23;7.03;;;6.43;;
21107;SDS011;10712;52.944;9.098;2023-09-18T01:14:06;7.05;;;6.43;;
21107;SDS011;10712;52.944;9.098;2023-09-18T01:16:58;6.45;;;5.95;;
21107;SDS011;10712;52.944;9.098;2023-09-18T01:22:12;7.65;;;6.95;;
21107;SDS011;10712;52.944;9.098;2023-09-18T01:24:41;6.80;;;6.20;;
21107;SDS011;10712;52.944;9.098;2023-09-18T01:27:10;7.40;;;6.78;;
21107;SDS011;10712;52.944;9.098;2023-09-18T01:29:38;7.03;;;6.45;;
21107;SDS011;10712;52.944;9.098;2023-09-18T01:32:04;8.18;;;7.47;;
21107;SDS011;10712;52.944;9.098;2023-09-18T01:34:40;7.50;;;6.90;;
21107;SDS011;10712;52.944;9.098;2023-09-18T01:37:16;8.02;;;7.32;;
21107;SDS011;10712;52.944;9.098;2023-09-18T01:39:46;6.53;;;6.03;;
21107;SDS011;10712;52.944;9.098;2023-09-18T01:42:16;8.35;;;6.85;;
21107;SDS011;10712;52.944;9.098;2023-09-18T01:44:43;7.53;;;6.78;;
21107;SDS011;10712;52.944;9.098;2023-09-18T01:47:17;6.50;;;5.90;;
21107;SDS011;10712;52.944;9.098;2023-09-18T01:49:44;8.73;;;7.28;;
21107;SDS011;10712;52.944;9.098;2023-09-18T01:52:11;7.90;;;7.20;;
21107;SDS011;10712;52.944;9.098;2023-09-18T01:54:38;7.72;;;7.03;;
21107;SDS011;10712;52.944;9.098;2023-09-18T01:57:04;7.40;;;6.70;;
21107;SDS011;10712;52.944;9.098;2023-09-18T01:59:33;8.48;;;7.30;;
21107;SDS011;10712;52.944;9.098;2023-09-18T02:02:01;6.68;;;6.13;;
21107;SDS011;10712;52.944;9.098;2023-09-18T02:04:32;5.87;;;5.37;;
21107;SDS011;10712;52.944;9.098;2023-09-18T02:06:58;6.57;;;5.35;;
21107;SDS011;10712;52.944;9.098;2023-09-18T02:09:24;8.15;;;6.22;;
21107;SDS011;10712;52.944;9.098;2023-09-18T02:11:50;6.45;;;5.85;;
21107;SDS011;10712;52.944;9.098;2023-09-18T02:14:16;6.22;;;5.63;;
21107;SDS011;10712;52.944;9.098;2023-09-18T02:16:42;6.38;;;5.88;;
21107;SDS011;10712;52.944;9.098;2023-09-18T02:19:10;6.82;;;6.22;;
21107;SDS011;10712;52.944;9.098;2023-09-18T02:21:38;6.70;;;6.10;;
21107;SDS011;10712;52.944;9.098;2023-09-18T02:24:05;6.45;;;5.85;;
21107;SDS011;10712;52.944;9.098;2023-09-18T02:26:32;6.32;;;5.72;;
21107;SDS011;10712;52.944;9.098;2023-09-18T02:28:59;6.88;;;6.28;;
21107;SDS011;10712;52.944;9.098;2023-09-18T02:31:29;7.60;;;6.47;;
21107;SDS011;10712;52.944;9.098;2023-09-18T02:33:55;6.32;;;5.72;;
21107;SDS011;10712;52.944;9.098;2023-09-18T02:36:21;7.38;;;6.60;;
21107;SDS011;10712;52.944;9.098;2023-09-18T02:38:48;7.00;;;6.28;;
21107;SDS011;10712;52.944;9.098;2023-09-18T02:41:14;7.78;;;7.00;;
21107;SDS011;10712;52.944;9.098;2023-09-18T02:43:39;8.05;;;6.18;;
21107;SDS011;10712;52.944;9.098;2023-09-18T02:46:06;7.22;;;6.63;;
21107;SDS011;10712;52.944;9.098;2023-09-18T02:48:34;11.40;;;7.43;;
21107;SDS011;10712;52.944;9.098;2023-09-18T02:51:00;7.38;;;6.65;;
21107;SDS011;10712;52.944;9.098;2023-09-18T02:53:28;7.15;;;6.55;;
21107;SDS011;10712;52.944;9.098;2023-09-18T02:55:56;8.27;;;6.30;;
21107;SDS011;10712;52.944;9.098;2023-09-18T02:58:24;7.60;;;6.90;;
21107;SDS011;10712;52.944;9.098;2023-09-18T03:00:52;6.78;;;6.07;;
21107;SDS011;10712;52.944;9.098;2023-09-18T03:03:22;8.50;;;5.80;;
21107;SDS011;10712;52.944;9.098;2023-09-18T03:05:48;7.10;;;6.50;;
21107;SDS011;10712;52.944;9.098;2023-09-18T03:08:14;9.48;;;5.88;;
21107;SDS011;10712;52.944;9.098;2023-09-18T03:10:43;7.05;;;6.15;;
21107;SDS011;10712;52.944;9.098;2023-09-18T03:13:10;7.20;;;6.60;;
21107;SDS011;10712;52.944;9.098;2023-09-18T03:15:39;7.15;;;6.53;;
21107;SDS011;10712;52.944;9.098;2023-09-18T03:18:06;7.13;;;6.43;;
21107;SDS011;10712;52.944;9.098;2023-09-18T03:20:34;6.63;;;6.03;;
21107;SDS011;10712;52.944;9.098;2023-09-18T03:23:01;8.32;;;6.68;;
21107;SDS011;10712;52.944;9.098;2023-09-18T03:25:27;6.68;;;6.10;;
21107;SDS011;10712;52.944;9.098;2023-09-18T03:27:55;6.88;;;6.28;;
21107;SDS011;10712;52.944;9.098;2023-09-18T03:30:27;6.55;;;5.95;;
21107;SDS011;10712;52.944;9.098;2023-09-18T03:32:53;7.38;;;6.68;;
21107;SDS011;10712;52.944;9.098;2023-09-18T03:35:21;6.43;;;5.90;;
21107;SDS011;10712;52.944;9.098;2023-09-18T03:37:48;7.15;;;6.43;;
21107;SDS011;10712;52.944;9.098;2023-09-18T03:40:20;6.30;;;5.68;;
21107;SDS011;10712;52.944;9.098;2023-09-18T03:42:47;8.05;;;6.60;;
21107;SDS011;10712;52.944;9.098;2023-09-18T03:45:14;7.43;;;6.20;;
21107;SDS011;10712;52.944;9.098;2023-09-18T03:47:43;6.85;;;6.18;;
21107;SDS011;10712;52.944;9.098;2023-09-18T03:50:09;6.65;;;5.85;;
21107;SDS011;10712;52.944;9.098;2023-09-18T03:52:37;7.90;;;7.10;;
21107;SDS011;10712;52.944;9.098;2023-09-18T03:55:06;7.15;;;6.55;;
21107;SDS011;10712;52.944;9.098;2023-09-18T03:57:32;7.53;;;6.78;;
21107;SDS011;10712;52.944;9.098;2023-09-18T03:59:58;7.03;;;6.43;;
21107;SDS011;10712;52.944;9.098;2023-09-18T04:02:25;7.15;;;6.45;;
21107;SDS011;10712;52.944;9.098;2023-09-18T04:04:51;7.25;;;6.55;;
21107;SDS011;10712;52.944;9.098;2023-09-18T04:07:18;7.40;;;6.55;;
21107;SDS011;10712;52.944;9.098;2023-09-18T04:09:44;7.72;;;6.88;;
21107;SDS011;10712;52.944;9.098;2023-09-18T04:12:11;7.68;;;6.88;;
21107;SDS011;10712;52.944;9.098;2023-09-18T04:14:38;9.82;;;7.13;;
21107;SDS011;10712;52.944;9.098;2023-09-18T04:17:04;8.45;;;7.25;;
21107;SDS011;10712;52.944;9.098;2023-09-18T04:19:30;9.48;;;7.18;;
21107;SDS011;10712;52.944;9.098;2023-09-18T04:21:57;6.80;;;6.20;;
21107;SDS011;10712;52.944;9.098;2023-09-18T04:24:23;7.68;;;6.97;;
21107;SDS011;10712;52.944;9.098;2023-09-18T04:26:49;7.53;;;6.93;;
21107;SDS011;10712;52.944;9.098;2023-09-18T04:29:16;8.40;;;7.22;;
21107;SDS011;10712;52.944;9.098;2023-09-18T04:31:43;9.02;;;6.28;;
21107;SDS011;10712;52.944;9.098;2023-09-18T04:34:10;7.18;;;6.40;;
21107;SDS011;10712;52.944;9.098;2023-09-18T04:36:37;9.30;;;6.75;;
21107;SDS011;10712;52.944;9.098;2023-09-18T04:39:05;9.52;;;7.00;;
21107;SDS011;10712;52.944;9.098;2023-09-18T04:41:32;7.70;;;6.78;;
21107;SDS011;10712;52.944;9.098;2023-09-18T04:44:00;7.53;;;6.80;;
21107;SDS011;10712;52.944;9.098;2023-09-18T04:46:26;6.82;;;6.22;;
21107;SDS011;10712;52.944;9.098;2023-09-18T04:48:52;6.72;;;6.03;;
21107;SDS011;10712;52.944;9.098;2023-09-18T04:51:18;7.80;;;6.78;;
21107;SDS011;10712;52.944;9.098;2023-09-18T04:53:44;9.48;;;7.05;;
21107;SDS011;10712;52.944;9.098;2023-09-18T04:56:10;6.45;;;5.95;;
21107;SDS011;10712;52.944;9.098;2023-09-18T04:58:36;8.05;;;6.32;;
21107;SDS011;10712;52.944;9.098;2023-09-18T05:01:02;10.13;;;8.73;;
21107;SDS011;10712;52.944;9.098;2023-09-18T05:03:34;7.35;;;6.65;;
21107;SDS011;10712;52.944;9.098;2023-09-18T05:06:01;6.43;;;5.65;;
21107;SDS011;10712;52.944;9.098;2023-09-18T05:08:28;8.00;;;6.80;;
21107;SDS011;10712;52.944;9.098;2023-09-18T05:10:54;7.10;;;6.40;;
21107;SDS011;10712;52.944;9.098;2023-09-18T05:13:20;7.63;;;6.93;;
21107;SDS011;10712;52.944;9.098;2023-09-18T05:15:46;6.80;;;6.20;;
21107;SDS011;10712;52.944;9.098;2023-09-18T05:18:12;9.73;;;6.57;;
21107;SDS011;10712;52.944;9.098;2023-09-18T05:20:39;7.93;;;6.53;;
21107;SDS011;10712;52.944;9.098;2023-09-18T05:23:05;7.15;;;6.45;;
21107;SDS011;10712;52.944;9.098;2023-09-18T05:25:31;7.13;;;5.70;;
21107;SDS011;10712;52.944;9.098;2023-09-18T05:28:01;7.95;;;6.32;;
21107;SDS011;10712;52.944;9.098;2023-09-18T05:30:31;7.20;;;6.50;;
21107;SDS011;10712;52.944;9.098;2023-09-18T05:33:02;7.05;;;6.30;;
21107;SDS011;10712;52.944;9.098;2023-09-18T05:35:36;6.60;;;5.90;;
21107;SDS011;10712;52.944;9.098;2023-09-18T05:38:09;6.80;;;6.30;;
21107;SDS011;10712;52.944;9.098;2023-09-18T05:40:38;6.38;;;5.88;;
21107;SDS011;10712;52.944;9.098;2023-09-18T05:43:08;7.88;;;6.32;;
21107;SDS011;10712;52.944;9.098;2023-09-18T05:45:35;6.50;;;5.78;;
21107;SDS011;10712;52.944;9.098;2023-09-18T05:48:01;7.32;;;5.18;;
21107;SDS011;10712;52.944;9.098;2023-09-18T05:50:32;12.30;;;5.75;;
21107;SDS011;10712;52.944;9.098;2023-09-18T05:55:29;5.78;;;5.28;;
21107;SDS011;10712;52.944;9.098;2023-09-18T05:57:56;7.22;;;5.50;;
21107;SDS011;10712;52.944;9.098;2023-09-18T06:00:22;10.23;;;5.80;;
21107;SDS011;10712;52.944;9.098;2023-09-18T06:02:49;8.35;;;5.60;;
21107;SDS011;10712;52.944;9.098;2023-09-18T06:05:16;6.65;;;5.65;;
21107;SDS011;10712;52.944;9.098;2023-09-18T06:07:46;6.55;;;5.93;;
21107;SDS011;10712;52.944;9.098;2023-09-18T06:10:16;8.13;;;5.82;;
21107;SDS011;10712;52.944;9.098;2023-09-18T06:12:42;6.97;;;6.00;;
21107;SDS011;10712;52.944;9.098;2023-09-18T06:15:10;10.48;;;6.07;;
21107;SDS011;10712;52.944;9.098;2023-09-18T06:17:40;6.45;;;5.95;;
21107;SDS011;10712;52.944;9.098;2023-09-18T06:20:08;5.88;;;5.30;;
21107;SDS011;10712;52.944;9.098;2023-09-18T06:22:38;5.75;;;5.20;;
21107;SDS011;10712;52.944;9.098;2023-09-18T06:25:05;7.43;;;6.03;;
21107;SDS011;10712;52.944;9.098;2023-09-18T06:27:35;5.72;;;5.22;;
21107;SDS011;10712;52.944;9.098;2023-09-18T06:30:03;9.15;;;5.78;;
21107;SDS011;10712;52.944;9.098;2023-09-18T06:32:31;7.53;;;6.18;;
21107;SDS011;10712;52.944;9.098;2023-09-18T06:34:57;6.60;;;6.00;;
21107;SDS011;10712;52.944;9.098;2023-09-18T06:37:23;6.40;;;5.80;;
21107;SDS011;10712;52.944;9.098;2023-09-18T06:39:49;6.18;;;5.50;;
21107;SDS011;10712;52.944;9.098;2023-09-18T06:42:16;9.93;;;6.32;;
21107;SDS011;10712;52.944;9.098;2023-09-18T06:44:41;9.13;;;5.70;;
21107;SDS011;10712;52.944;9.098;2023-09-18T06:47:07;8.75;;;6.32;;
21107;SDS011;10712;52.944;9.098;2023-09-18T06:49:33;8.30;;;6.25;;
21107;SDS011;10712;52.944;9.098;2023-09-18T06:51:59;6.88;;;6.28;;
21107;SDS011;10712;52.944;9.098;2023-09-18T06:54:25;6.55;;;5.93;;
21107;SDS011;10712;52.944;9.098;2023-09-18T06:56:51;7.40;;;6.50;;
21107;SDS011;10712;52.944;9.098;2023-09-18T06:59:16;9.43;;;6.00;;
21107;SDS011;10712;52.944;9.098;2023-09-18T07:01:43;6.93;;;5.97;;
21107;SDS011;10712;52.944;9.098;2023-09-18T07:04:09;7.78;;;5.93;;
21107;SDS011;10712;52.944;9.098;2023-09-18T07:06:35;8.95;;;6.28;;
21107;SDS011;10712;52.944;9.098;2023-09-18T07:09:00;7.15;;;6.32;;
21107;SDS011;10712;52.944;9.098;2023-09-18T07:11:29;8.85;;;5.93;;
21107;SDS011;10712;52.944;9.098;2023-09-18T07:13:55;6.30;;;5.72;;
21107;SDS011;10712;52.944;9.098;2023-09-18T07:16:21;8.70;;;5.47;;
21107;SDS011;10712;52.944;9.098;2023-09-18T07:18:46;8.40;;;5.70;;
21107;SDS011;10712;52.944;9.098;2023-09-18T07:21:12;6.68;;;5.75;;
21107;SDS011;10712;52.944;9.098;2023-09-18T07:23:39;5.93;;;5.30;;
21107;SDS011;10712;52.944;9.098;2023-09-18T07:26:05;5.85;;;5.35;;
21107;SDS011;10712;52.944;9.098;2023-09-18T07:28:31;6.70;;;6.15;;
21107;SDS011;10712;52.944;9.098;2023-09-18T07:31:02;6.72;;;6.13;;
21107;SDS011;10712;52.944;9.098;2023-09-18T07:33:34;6.07;;;5.57;;
21107;SDS011;10712;52.944;9.098;2023-09-18T07:36:00;6.75;;;5.63;;
21107;SDS011;10712;52.944;9.098;2023-09-18T07:38:26;5.82;;;5.32;;
21107;SDS011;10712;52.944;9.098;2023-09-18T07:40:52;5.22;;;4.72;;
21107;SDS011;10712;52.944;9.098;2023-09-18T07:43:17;5.72;;;5.22;;
21107;SDS011;10712;52.944;9.098;2023-09-18T07:45:43;5.60;;;5.10;;
21107;SDS011;10712;52.944;9.098;2023-09-18T07:48:09;5.13;;;4.72;;
21107;SDS011;10712;52.944;9.098;2023-09-18T07:50:35;5.68;;;4.88;;
21107;SDS011;10712;52.944;9.098;2023-09-18T07:53:01;5.30;;;4.90;;
21107;SDS011;10712;52.944;9.098;2023-09-18T07:55:28;6.22;;;5.63;;
21107;SDS011;10712;52.944;9.098;2023-09-18T07:57:55;7.30;;;6.20;;
21107;SDS011;10712;52.944;9.098;2023-09-18T08:00:21;7.25;;;5.38;;
21107;SDS011;10712;52.944;9.098;2023-09-18T08:02:48;6.72;;;6.13;;
21107;SDS011;10712;52.944;9.098;2023-09-18T08:05:15;6.85;;;5.38;;
21107;SDS011;10712;52.944;9.098;2023-09-18T08:07:42;7.18;;;5.30;;
21107;SDS011;10712;52.944;9.098;2023-09-18T08:10:08;7.57;;;5.88;;
21107;SDS011;10712;52.944;9.098;2023-09-18T08:12:35;6.38;;;5.78;;
21107;SDS011;10712;52.944;9.098;2023-09-18T08:15:01;5.00;;;4.53;;
21107;SDS011;10712;52.944;9.098;2023-09-18T08:17:28;8.13;;;6.07;;
21107;SDS011;10712;52.944;9.098;2023-09-18T08:19:53;6.88;;;6.28;;
21107;SDS011;10712;52.944;9.098;2023-09-18T08:22:19;6.32;;;5.82;;
21107;SDS011;10712;52.944;9.098;2023-09-18T08:24:46;6.90;;;6.22;;
21107;SDS011;10712;52.944;9.098;2023-09-18T08:27:13;7.13;;;6.35;;
21107;SDS011;10712;52.944;9.098;2023-09-18T08:29:42;7.43;;;6.70;;
21107;SDS011;10712;52.944;9.098;2023-09-18T08:32:09;6.63;;;6.03;;
21107;SDS011;10712;52.944;9.098;2023-09-18T08:34:35;8.13;;;6.72;;
21107;SDS011;10712;52.944;9.098;2023-09-18T08:37:00;6.65;;;6.07;;
21107;SDS011;10712;52.944;9.098;2023-09-18T08:39:27;6.50;;;5.93;;
21107;SDS011;10712;52.944;9.098;2023-09-18T08:41:55;9.52;;;6.85;;
21107;SDS011;10712;52.944;9.098;2023-09-18T08:44:27;7.95;;;6.18;;
21107;SDS011;10712;52.944;9.098;2023-09-18T08:46:54;7.35;;;6.68;;
21107;SDS011;10712;52.944;9.098;2023-09-18T08:49:24;10.05;;;6.03;;
21107;SDS011;10712;52.944;9.098;2023-09-18T08:51:52;7.85;;;6.88;;
21107;SDS011;10712;52.944;9.098;2023-09-18T08:54:21;8.50;;;6.32;;
21107;SDS011;10712;52.944;9.098;2023-09-18T08:56:51;10.43;;;6.05;;
21107;SDS011;10712;52.944;9.098;2023-09-18T08:59:19;6.70;;;5.55;;
21107;SDS011;10712;52.944;9.098;2023-09-18T09:01:52;6.32;;;5.53;;
21107;SDS011;10712;52.944;9.098;2023-09-18T09:04:18;7.85;;;5.25;;
21107;SDS011;10712;52.944;9.098;2023-09-18T09:06:44;9.82;;;4.72;;
21107;SDS011;10712;52.944;9.098;2023-09-18T09:09:10;6.75;;;4.60;;
21107;SDS011;10712;52.944;9.098;2023-09-18T09:11:38;6.50;;;4.63;;
21107;SDS011;10712;52.944;9.098;2023-09-18T09:14:11;7.75;;;5.10;;
21107;SDS011;10712;52.944;9.098;2023-09-18T09:16:50;7.38;;;4.63;;
21107;SDS011;10712;52.944;9.098;2023-09-18T09:19:17;5.65;;;4.88;;
21107;SDS011;10712;52.944;9.098;2023-09-18T09:21:52;7.20;;;4.03;;
21107;SDS011;10712;52.944;9.098;2023-09-18T09:24:19;6.80;;;4.60;;
21107;SDS011;10712;52.944;9.098;2023-09-18T09:27:05;11.10;;;4.90;;
21107;SDS011;10712;52.944;9.098;2023-09-18T09:29:31;4.43;;;3.80;;
21107;SDS011;10712;52.944;9.098;2023-09-18T09:32:06;9.35;;;4.30;;
21107;SDS011;10712;52.944;9.098;2023-09-18T09:34:42;8.23;;;4.68;;
21107;SDS011;10712;52.944;9.098;2023-09-18T09:37:09;8.65;;;3.40;;
21107;SDS011;10712;52.944;9.098;2023-09-18T09:42:39;15.55;;;3.67;;
21107;SDS011;10712;52.944;9.098;2023-09-18T09:45:11;9.88;;;4.00;;
21107;SDS011;10712;52.944;9.098;2023-09-18T09:47:44;6.25;;;4.13;;
21107;SDS011;10712;52.944;9.098;2023-09-18T09:52:47;4.72;;;2.95;;
21107;SDS011;10712;52.944;9.098;2023-09-18T09:55:22;6.80;;;3.20;;
21107;SDS011;10712;52.944;9.098;2023-09-18T09:58:03;4.78;;;3.15;;
21107;SDS011;10712;52.944;9.098;2023-09-18T10:03:12;4.55;;;3.33;;
21107;SDS011;10712;52.944;9.098;2023-09-18T10:05:45;5.82;;;3.47;;
21107;SDS011;10712;52.944;9.098;2023-09-18T10:08:22;4.68;;;2.83;;
21107;SDS011;10712;52.944;9.098;2023-09-18T10:10:54;12.82;;;3.58;;
21107;SDS011;10712;52.944;9.098;2023-09-18T10:13:33;6.40;;;2.90;;
21107;SDS011;10712;52.944;9.098;2023-09-18T10:16:05;4.65;;;3.20;;
21107;SDS011;10712;52.944;9.098;2023-09-18T10:21:45;7.00;;;3.22;;
21107;SDS011;10712;52.944;9.098;2023-09-18T10:24:39;8.00;;;2.88;;
21107;SDS011;10712;52.944;9.098;2023-09-18T10:27:07;7.63;;;3.58;;
21107;SDS011;10712;52.944;9.098;2023-09-18T10:29:38;8.40;;;3.30;;
21107;SDS011;10712;52.944;9.098;2023-09-18T10:32:09;6.15;;;2.42;;
21107;SDS011;10712;52.944;9.098;2023-09-18T10:34:38;5.80;;;2.83;;
21107;SDS011;10712;52.944;9.098;2023-09-18T10:37:08;8.73;;;2.72;;
21107;SDS011;10712;52.944;9.098;2023-09-18T10:39:38;5.72;;;3.35;;
21107;SDS011;10712;52.944;9.098;2023-09-18T10:42:12;9.02;;;3.13;;
21107;SDS011;10712;52.944;9.098;2023-09-18T10:44:44;5.15;;;2.80;;
21107;SDS011;10712;52.944;9.098;2023-09-18T10:47:13;6.55;;;2.58;;
21107;SDS011;10712;52.944;9.098;2023-09-18T10:49:40;7.57;;;2.80;;
21107;SDS011;10712;52.944;9.098;2023-09-18T10:52:12;4.18;;;2.78;;
21107;SDS011;10712;52.944;9.098;2023-09-18T10:54:42;6.80;;;3.05;;
21107;SDS011;10712;52.944;9.098;2023-09-18T10:57:12;5.38;;;2.65;;
21107;SDS011;10712;52.944;9.098;2023-09-18T10:59:44;5.38;;;3.05;;
21107;SDS011;10712;52.944;9.098;2023-09-18T11:02:13;9.77;;;2.63;;
21107;SDS011;10712;52.944;9.098;2023-09-18T11:07:21;5.75;;;2.40;;
21107;SDS011;10712;52.944;9.098;2023-09-18T11:09:51;4.15;;;2.22;;
21107;SDS011;10712;52.944;9.098;2023-09-18T11:12:18;5.57;;;2.33;;
21107;SDS011;10712;52.944;9.098;2023-09-18T11:17:35;5.13;;;2.22;;
21107;SDS011;10712;52.944;9.098;2023-09-18T11:20:23;9.02;;;3.20;;
21107;SDS011;10712;52.944;9.098;2023-09-18T11:22:57;6.10;;;2.92;;
21107;SDS011;10712;52.944;9.098;2023-09-18T11:25:39;6.38;;;3.30;;
21107;SDS011;10712;52.944;9.098;2023-09-18T11:28:14;7.43;;;2.53;;
21107;SDS011;10712;52.944;9.098;2023-09-18T11:30:55;9.65;;;2.67;;
21107;SDS011;10712;52.944;9.098;2023-09-18T11:33:34;6.38;;;2.70;;
21107;SDS011;10712;52.944;9.098;2023-09-18T11:36:12;3.55;;;2.60;;
21107;SDS011;10712;52.944;9.098;2023-09-18T11:39:01;5.15;;;2.63;;
21107;SDS011;10712;52.944;9.098;2023-09-18T11:41:31;4.68;;;2.72;;
21107;SDS011;10712;52.944;9.098;2023-09-18T11:46:45;5.78;;;2.90;;
21107;SDS011;10712;52.944;9.098;2023-09-18T11:49:22;6.32;;;3.25;;
21107;SDS011;10712;52.944;9.098;2023-09-18T11:51:54;7.50;;;2.97;;
21107;SDS011;10712;52.944;9.098;2023-09-18T11:54:27;11.02;;;3.42;;
21107;SDS011;10712;52.944;9.098;2023-09-18T11:56:57;4.68;;;3.78;;
21107;SDS011;10712;52.944;9.098;2023-09-18T11:59:37;6.20;;;3.38;;
21107;SDS011;10712;52.944;9.098;2023-09-18T12:02:30;6.47;;;3.15;;
21107;SDS011;10712;52.944;9.098;2023-09-18T12:05:05;4.78;;;3.17;;
21107;SDS011;10712;52.944;9.098;2023-09-18T12:07:40;4.95;;;2.97;;
21107;SDS011;10712;52.944;9.098;2023-09-18T12:10:15;5.13;;;2.88;;
21107;SDS011;10712;52.944;9.098;2023-09-18T12:12:47;11.00;;;3.10;;
21107;SDS011;10712;52.944;9.098;2023-09-18T12:15:17;3.88;;;2.70;;
21107;SDS011;10712;52.944;9.098;2023-09-18T12:17:53;5.57;;;2.88;;
21107;SDS011;10712;52.944;9.098;2023-09-18T12:20:21;6.13;;;3.40;;
21107;SDS011;10712;52.944;9.098;2023-09-18T12:22:49;6.55;;;3.47;;
21107;SDS011;10712;52.944;9.098;2023-09-18T12:25:17;6.57;;;3.17;;
21107;SDS011;10712;52.944;9.098;2023-09-18T12:27:45;9.45;;;3.60;;
21107;SDS011;10712;52.944;9.098;2023-09-18T12:30:19;6.13;;;3.25;;
21107;SDS011;10712;52.944;9.098;2023-09-18T12:32:52;4.43;;;2.88;;
21107;SDS011;10712;52.944;9.098;2023-09-18T12:35:26;8.20;;;3.28;;
21107;SDS011;10712;52.944;9.098;2023-09-18T12:37:57;4.35;;;3.00;;
21107;SDS011;10712;52.944;9.098;2023-09-18T12:40:30;3.30;;;2.60;;
21107;SDS011;10712;52.944;9.098;2023-09-18T12:43:02;5.63;;;3.53;;
21107;SDS011;10712;52.944;9.098;2023-09-18T12:45:36;5.75;;;3.53;;
21107;SDS011;10712;52.944;9.098;2023-09-18T12:48:08;10.07;;;3.33;;
21107;SDS011;10712;52.944;9.098;2023-09-18T12:50:38;5.72;;;3.20;;
21107;SDS011;10712;52.944;9.098;2023-09-18T12:53:11;4.50;;;3.10;;
21107;SDS011;10712;52.944;9.098;2023-09-18T12:55:43;3.35;;;2.92;;
21107;SDS011;10712;52.944;9.098;2023-09-18T12:58:21;6.55;;;3.30;;
21107;SDS011;10712;52.944;9.098;2023-09-18T13:00:50;3.60;;;2.83;;
21107;SDS011;10712;52.944;9.098;2023-09-18T13:03:19;3.28;;;2.58;;
21107;SDS011;10712;52.944;9.098;2023-09-18T13:05:47;4.30;;;2.47;;
21107;SDS011;10712;52.944;9.098;2023-09-18T13:08:15;6.47;;;2.70;;
21107;SDS011;10712;52.944;9.098;2023-09-18T13:10:49;7.93;;;2.22;;
21107;SDS011;10712;52.944;9.098;2023-09-18T13:13:17;4.95;;;2.13;;
21107;SDS011;10712;52.944;9.098;2023-09-18T13:15:50;5.35;;;2.40;;
21107;SDS011;10712;52.944;9.098;2023-09-18T13:18:17;3.92;;;2.50;;
21107;SDS011;10712;52.944;9.098;2023-09-18T13:20:44;5.05;;;2.10;;
21107;SDS011;10712;52.944;9.098;2023-09-18T13:23:16;5.05;;;2.05;;
21107;SDS011;10712;52.944;9.098;2023-09-18T13:25:44;2.58;;;1.77;;
21107;SDS011;10712;52.944;9.098;2023-09-18T13:28:18;5.70;;;1.98;;
21107;SDS011;10712;52.944;9.098;2023-09-18T13:30:47;2.53;;;1.92;;
21107;SDS011;10712;52.944;9.098;2023-09-18T13:33:19;5.05;;;2.33;;
21107;SDS011;10712;52.944;9.098;2023-09-18T13:35:49;3.45;;;2.10;;
21107;SDS011;10712;52.944;9.098;2023-09-18T13:40:49;6.90;;;2.28;;
21107;SDS011;10712;52.944;9.098;2023-09-18T13:43:19;4.95;;;1.70;;
21107;SDS011;10712;52.944;9.098;2023-09-18T13:45:51;3.78;;;2.10;;
21107;SDS011;10712;52.944;9.098;2023-09-18T13:48:20;4.53;;;1.80;;
21107;SDS011;10712;52.944;9.098;2023-09-18T13:50:48;3.28;;;1.83;;
21107;SDS011;10712;52.944;9.098;2023-09-18T13:53:19;5.07;;;2.05;;
21107;SDS011;10712;52.944;9.098;2023-09-18T13:55:57;4.88;;;1.80;;
21107;SDS011;10712;52.944;9.098;2023-09-18T13:58:31;2.42;;;1.90;;
21107;SDS011;10712;52.944;9.098;2023-09-18T14:01:01;4.87;;;2.03;;
21107;SDS011;10712;52.944;9.098;2023-09-18T14:03:31;4.07;;;1.88;;
21107;SDS011;10712;52.944;9.098;2023-09-18T14:05:58;4.22;;;2.00;;
21107;SDS011;10712;52.944;9.098;2023-09-18T14:08:30;2.55;;;1.80;;
21107;SDS011;10712;52.944;9.098;2023-09-18T14:11:02;1.90;;;1.70;;
21107;SDS011;10712;52.944;9.098;2023-09-18T14:13:32;4.07;;;1.55;;
21107;SDS011;10712;52.944;9.098;2023-09-18T14:16:01;2.30;;;1.50;;
21107;SDS011;10712;52.944;9.098;2023-09-18T14:18:29;4.10;;;1.70;;
21107;SDS011;10712;52.944;9.098;2023-09-18T14:20:56;3.63;;;1.60;;
21107;SDS011;10712;52.944;9.098;2023-09-18T14:23:25;3.03;;;1.60;;
21107;SDS011;10712;52.944;9.098;2023-09-18T14:25:55;3.28;;;1.50;;
21107;SDS011;10712;52.944;9.098;2023-09-18T14:28:34;2.17;;;1.90;;
21107;SDS011;10712;52.944;9.098;2023-09-18T14:31:04;5.07;;;1.65;;
21107;SDS011;10712;52.944;9.098;2023-09-18T14:33:31;2.78;;;1.73;;
21107;SDS011;10712;52.944;9.098;2023-09-18T14:36:01;2.78;;;1.70;;
21107;SDS011;10712;52.944;9.098;2023-09-18T14:38:41;1.90;;;1.60;;
21107;SDS011;10712;52.944;9.098;2023-09-18T14:41:10;4.38;;;1.50;;
21107;SDS011;10712;52.944;9.098;2023-09-18T14:43:42;5.68;;;1.67;;
21107;SDS011;10712;52.944;9.098;2023-09-18T14:46:16;4.18;;;1.83;;
21107;SDS011;10712;52.944;9.098;2023-09-18T14:48:50;5.38;;;1.92;;
21107;SDS011;10712;52.944;9.098;2023-09-18T14:51:17;3.58;;;1.65;;
21107;SDS011;10712;52.944;9.098;2023-09-18T14:57:51;3.55;;;1.33;;
21107;SDS011;10712;52.944;9.098;2023-09-18T15:04:47;4.85;;;2.05;;
21107;SDS011;10712;52.944;9.098;2023-09-18T15:07:21;2.30;;;1.77;;
21107;SDS011;10712;52.944;9.098;2023-09-18T15:09:51;2.97;;;1.80;;
21107;SDS011;10712;52.944;9.098;2023-09-18T15:12:19;2.80;;;1.67;;
21107;SDS011;10712;52.944;9.098;2023-09-18T15:14:48;4.72;;;1.75;;
21107;SDS011;10712;52.944;9.098;2023-09-18T15:17:18;4.10;;;1.58;;
21107;SDS011;10712;52.944;9.098;2023-09-18T15:19:53;1.88;;;1.40;;
21107;SDS011;10712;52.944;9.098;2023-09-18T15:22:23;2.63;;;1.30;;
21107;SDS011;10712;52.944;9.098;2023-09-18T15:24:58;1.58;;;1.40;;
21107;SDS011;10712;52.944;9.098;2023-09-18T15:27:28;3.92;;;1.50;;
21107;SDS011;10712;52.944;9.098;2023-09-18T15:29:57;2.33;;;1.38;;
21107;SDS011;10712;52.944;9.098;2023-09-18T15:32:29;1.50;;;1.40;;
21107;SDS011;10712;52.944;9.098;2023-09-18T15:35:27;3.33;;;1.50;;